createdAt,value
2023-03-08T00:00:19.092Z,17.97
2023-03-08T00:05:21.135Z,18.17
2023-03-08T00:10:23.212Z,20.97
2023-03-08T00:15:25.211Z,22.07
2023-03-08T00:20:27.322Z,20.87
2023-03-08T00:25:29.330Z,18.37
2023-03-08T00:30:31.153Z,20.07
2023-03-08T00:35:33.119Z,21.30
2023-03-08T00:40:34.911Z,21.23
2023-03-08T00:45:38.420Z,19.83
2023-03-08T00:50:40.319Z,18.77
2023-03-08T00:55:50.424Z,19.73
2023-03-08T01:00:52.384Z,18.13
2023-03-08T01:05:56.318Z,20.00
2023-03-08T01:11:00.411Z,19.20
2023-03-08T01:16:02.549Z,19.97
2023-03-08T01:21:04.824Z,18.67
2023-03-08T01:26:11.199Z,17.00
2023-03-08T01:31:15.816Z,16.73
2023-03-08T01:36:20.322Z,15.13
2023-03-08T01:41:25.630Z,15.83
2023-03-08T01:46:32.025Z,14.77
2023-03-08T01:52:04.894Z,15.93
2023-03-08T01:57:17.802Z,16.17
2023-03-08T02:09:10.219Z,15.57
2023-03-08T02:14:12.202Z,16.23
2023-03-08T02:19:26.598Z,17.47
2023-03-08T02:24:28.810Z,17.90
2023-03-08T02:29:30.883Z,20.43
2023-03-08T02:34:32.711Z,18.50
2023-03-08T02:39:34.632Z,18.67
2023-03-08T02:44:36.563Z,16.97
2023-03-08T02:49:38.561Z,14.80
2023-03-08T02:54:40.795Z,13.73
2023-03-08T02:59:42.844Z,12.37
2023-03-08T03:04:45.480Z,10.50
2023-03-08T03:09:47.988Z,11.07
2023-03-08T03:14:50.195Z,12.07
2023-03-08T03:19:52.187Z,10.90
2023-03-08T03:24:54.133Z,11.30
2023-03-08T03:29:56.527Z,12.83
2023-03-08T03:34:59.391Z,11.77
2023-03-08T03:40:04.132Z,10.73
2023-03-08T03:45:07.018Z,11.63
2023-03-08T03:50:10.481Z,10.50
2023-03-08T03:55:21.778Z,11.07
2023-03-08T04:00:23.806Z,11.70
2023-03-08T04:05:45.685Z,11.93
2023-03-08T04:10:48.049Z,12.37
2023-03-08T04:15:50.211Z,13.50
2023-03-08T04:20:52.180Z,12.90
2023-03-08T04:25:54.203Z,13.70
2023-03-08T04:30:57.557Z,11.73
2023-03-08T04:35:59.789Z,10.23
2023-03-08T04:41:05.324Z,8.50
2023-03-08T04:46:17.918Z,8.77
2023-03-08T04:51:20.728Z,7.37
2023-03-08T04:56:23.446Z,6.27
2023-03-08T05:01:26.986Z,6.93
2023-03-08T05:06:29.709Z,6.80
2023-03-08T05:11:32.843Z,6.20
2023-03-08T05:16:35.324Z,6.70
2023-03-08T05:21:38.565Z,6.43
2023-03-08T05:26:40.551Z,6.33
2023-03-08T05:31:45.656Z,8.17
2023-03-08T05:36:49.745Z,6.30
2023-03-08T05:41:51.927Z,6.50
2023-03-08T05:47:01.112Z,7.03
2023-03-08T05:52:04.199Z,7.37
2023-03-08T05:57:06.341Z,7.63
2023-03-08T06:02:09.471Z,9.13
2023-03-08T06:07:16.078Z,8.70
2023-03-08T06:12:23.086Z,10.10
2023-03-08T06:17:28.820Z,10.77
2023-03-08T06:22:32.456Z,10.03
2023-03-08T06:27:36.013Z,10.70
2023-03-08T06:32:43.477Z,9.53
2023-03-08T06:37:46.108Z,9.93
2023-03-08T06:42:48.091Z,10.73
2023-03-08T06:47:51.775Z,10.50
2023-03-08T06:52:54.798Z,9.00
2023-03-08T06:58:06.777Z,10.20
2023-03-08T07:03:10.237Z,11.00
2023-03-08T07:08:12.112Z,10.63
2023-03-08T07:13:14.218Z,11.13
2023-03-08T07:18:16.177Z,10.57
2023-03-08T07:23:18.269Z,10.03
2023-03-08T07:28:20.327Z,10.27
2023-03-08T07:33:22.408Z,9.30
2023-03-08T07:38:24.453Z,8.50
2023-03-08T07:43:26.314Z,8.87
2023-03-08T07:48:32.739Z,10.03
2023-03-08T07:53:35.850Z,8.70
2023-03-08T07:58:38.066Z,8.80
2023-03-08T08:03:40.871Z,8.07
2023-03-08T08:08:43.157Z,8.70
2023-03-08T08:13:46.603Z,7.20
2023-03-08T08:18:48.604Z,7.83
2023-03-08T08:23:50.906Z,7.87
2023-03-08T08:28:54.239Z,7.30
2023-03-08T08:33:56.174Z,6.43
2023-03-08T08:38:58.136Z,6.77
2023-03-08T08:44:00.478Z,6.07
2023-03-08T08:49:03.055Z,6.87
2023-03-08T08:54:05.129Z,6.67
2023-03-08T08:59:06.988Z,6.30
2023-03-08T09:04:13.704Z,6.47
2023-03-08T09:09:16.581Z,7.20
2023-03-08T09:14:18.413Z,6.63
2023-03-08T09:19:20.396Z,7.57
2023-03-08T09:24:22.577Z,7.80
2023-03-08T09:29:24.608Z,7.30
2023-03-08T09:34:27.405Z,7.07
2023-03-08T09:39:29.542Z,7.27
2023-03-08T09:45:19.030Z,6.90
2023-03-08T09:50:25.757Z,7.17
2023-03-08T09:55:31.725Z,7.27
2023-03-08T10:00:37.316Z,8.00
2023-03-08T10:05:51.289Z,8.47
2023-03-08T10:11:02.154Z,9.07
2023-03-08T10:16:22.604Z,9.53
2023-03-08T10:21:26.759Z,9.70
2023-03-08T10:26:29.674Z,10.10
2023-03-08T10:31:33.935Z,9.20
2023-03-08T10:36:47.951Z,11.10
2023-03-08T10:41:57.527Z,10.53
2023-03-08T10:47:00.329Z,11.70
2023-03-08T10:52:02.489Z,12.47
2023-03-08T10:57:04.709Z,11.57
2023-03-08T11:02:12.913Z,12.47
2023-03-08T11:07:24.471Z,12.67
2023-03-08T11:12:26.772Z,13.60
2023-03-08T11:17:35.618Z,14.77
2023-03-08T11:23:00.994Z,14.83
2023-03-08T11:28:44.608Z,16.33
2023-03-08T11:33:58.762Z,17.23
2023-03-08T11:39:06.452Z,16.10
2023-03-08T11:44:28.537Z,16.37
2023-03-08T11:49:55.539Z,16.67
2023-03-08T11:54:57.391Z,16.07
2023-03-08T12:00:13.213Z,16.13
2023-03-08T12:05:28.248Z,17.83
2023-03-08T12:10:45.002Z,16.67
2023-03-08T12:15:54.101Z,18.77
2023-03-08T12:21:22.555Z,16.70
2023-03-08T12:26:37.560Z,18.03
2023-03-08T12:31:47.808Z,17.90
2023-03-08T12:36:49.817Z,17.70
2023-03-08T12:42:10.037Z,18.77
2023-03-08T12:47:11.937Z,18.37
2023-03-08T12:52:37.598Z,17.43
2023-03-08T12:57:48.348Z,19.13
2023-03-08T13:03:12.922Z,18.93
2023-03-08T13:08:14.866Z,19.23
2023-03-08T13:13:39.100Z,19.20
2023-03-08T13:18:47.195Z,18.07
2023-03-08T13:23:56.734Z,19.10
2023-03-08T13:28:59.131Z,18.23
2023-03-08T13:34:01.147Z,18.37
2023-03-08T13:39:08.146Z,19.03
2023-03-08T13:44:23.849Z,18.60
2023-03-08T13:49:30.290Z,18.13
2023-03-08T13:54:42.061Z,18.70
2023-03-08T13:59:52.932Z,17.63
2023-03-08T14:04:55.546Z,17.70
2023-03-08T14:09:58.196Z,17.63
2023-03-08T14:15:05.720Z,17.03
2023-03-08T14:20:22.815Z,18.57
2023-03-08T14:25:31.292Z,20.83
2023-03-08T14:30:33.098Z,23.53
2023-03-08T14:35:41.354Z,23.50
2023-03-08T14:40:50.211Z,21.83
2023-03-08T14:45:56.388Z,23.03
2023-03-08T14:50:59.689Z,24.57
2023-03-08T14:56:16.173Z,24.50
2023-03-08T15:01:33.967Z,25.50
2023-03-08T15:06:39.665Z,28.47
2023-03-08T15:11:42.912Z,26.57
2023-03-08T15:16:44.746Z,27.03
2023-03-08T15:21:47.604Z,29.37
2023-03-08T15:26:49.645Z,30.17
2023-03-08T15:31:51.878Z,28.77
2023-03-08T15:36:54.194Z,28.30
2023-03-08T15:41:56.056Z,27.53
2023-03-08T15:46:58.118Z,29.17
2023-03-08T15:52:00.126Z,27.80
2023-03-08T15:57:02.096Z,28.43
2023-03-08T16:02:04.163Z,29.77
2023-03-08T16:07:06.008Z,28.03
2023-03-08T16:12:08.558Z,30.70
2023-03-08T16:17:10.489Z,29.97
2023-03-08T16:22:12.877Z,31.50
2023-03-08T16:27:15.288Z,30.97
2023-03-08T16:32:18.523Z,32.07
2023-03-08T16:37:21.349Z,27.97
2023-03-08T16:42:23.454Z,29.17
2023-03-08T16:47:26.621Z,29.37
2023-03-08T16:52:28.755Z,30.27
2023-03-08T16:57:30.726Z,31.53
2023-03-08T17:02:32.700Z,30.67
2023-03-08T17:07:34.626Z,29.03
2023-03-08T17:12:36.506Z,31.53
2023-03-08T17:17:39.590Z,25.83
2023-03-08T17:22:41.610Z,26.87
2023-03-08T17:27:43.369Z,24.63
2023-03-08T17:32:45.201Z,26.90
2023-03-08T17:37:47.338Z,26.80
2023-03-08T17:42:49.220Z,26.63
2023-03-08T17:47:51.192Z,26.27
2023-03-08T17:52:53.133Z,24.80
2023-03-08T17:57:55.044Z,26.93
2023-03-08T18:02:58.173Z,26.07
2023-03-08T18:08:00.172Z,26.00
2023-03-08T18:13:02.138Z,26.93
2023-03-08T18:18:04.420Z,25.53
2023-03-08T18:23:07.171Z,26.50
2023-03-08T18:28:09.461Z,24.20
2023-03-08T18:33:11.670Z,25.80
2023-03-08T18:38:13.699Z,25.70
2023-03-08T18:43:15.607Z,28.50
2023-03-08T18:48:17.695Z,25.87
2023-03-08T18:53:19.710Z,27.60
2023-03-08T18:58:22.106Z,27.83
2023-03-08T19:03:24.442Z,27.07
2023-03-08T19:08:27.839Z,30.83
2023-03-08T19:13:29.764Z,27.90
2023-03-08T19:18:31.663Z,28.67
2023-03-08T19:23:33.626Z,28.93
2023-03-08T19:28:35.618Z,29.17
2023-03-08T19:33:37.541Z,27.80
2023-03-08T19:38:39.612Z,30.47
2023-03-08T19:43:42.414Z,29.27
2023-03-08T19:48:45.865Z,29.70
2023-03-08T19:53:47.953Z,28.83
2023-03-08T19:58:49.754Z,29.20
2023-03-08T20:03:52.339Z,28.57
2023-03-08T20:08:56.922Z,28.23
2023-03-08T20:13:59.217Z,27.47
2023-03-08T20:19:01.268Z,29.10
2023-03-08T20:24:04.081Z,29.43
2023-03-08T20:29:05.995Z,29.57
2023-03-08T20:34:08.022Z,30.47
2023-03-08T20:39:10.362Z,27.57
2023-03-08T20:44:12.403Z,28.70
2023-03-08T20:49:16.642Z,27.37
2023-03-08T20:54:18.971Z,29.40
2023-03-08T20:59:24.203Z,29.50
2023-03-08T21:04:26.722Z,30.73
2023-03-08T21:09:28.756Z,30.00
2023-03-08T21:14:33.405Z,30.47
2023-03-08T21:19:35.479Z,31.57
2023-03-08T21:24:37.331Z,31.53
2023-03-08T21:29:39.495Z,28.80
2023-03-08T21:34:41.509Z,32.77
2023-03-08T21:39:43.419Z,33.43
2023-03-08T21:44:45.345Z,30.87
2023-03-08T21:49:47.357Z,30.93
2023-03-08T21:54:49.544Z,29.87
2023-03-08T21:59:51.758Z,31.03
2023-03-08T22:04:54.008Z,32.77
2023-03-08T22:09:55.893Z,27.50
2023-03-08T22:14:57.941Z,27.90
2023-03-08T22:20:00.061Z,29.33
2023-03-08T22:25:01.953Z,24.77
2023-03-08T22:30:10.774Z,24.93
2023-03-08T22:35:13.069Z,23.03
2023-03-08T22:40:15.275Z,24.87
2023-03-08T22:45:17.243Z,22.37
2023-03-08T22:50:19.252Z,21.97
2023-03-08T22:55:21.211Z,24.80
2023-03-08T23:00:23.206Z,22.80
2023-03-08T23:05:25.155Z,21.40
2023-03-08T23:10:27.277Z,21.60
2023-03-08T23:15:31.095Z,22.00
2023-03-08T23:20:33.695Z,21.43
2023-03-08T23:25:40.262Z,21.73
2023-03-08T23:30:42.531Z,21.37
2023-03-08T23:35:48.620Z,22.13
2023-03-08T23:40:50.509Z,23.50
2023-03-08T23:45:52.545Z,24.13
2023-03-08T23:50:54.444Z,21.73
2023-03-08T23:55:56.412Z,23.07
